sensor_id;sensor_type;location;lat;lon;timestamp;P1;durP1;ratioP1;P2;durP2;ratioP2
72590;SDS011;60625;51.212;5.952;2023-07-30T00:03:48;10.90;;;1.80;;
72590;SDS011;60625;51.212;5.952;2023-07-30T00:08:48;5.60;;;2.10;;
72590;SDS011;60625;51.212;5.952;2023-07-30T00:13:49;7.50;;;2.10;;
72590;SDS011;60625;51.212;5.952;2023-07-30T00:18:50;9.10;;;2.10;;
72590;SDS011;60625;51.212;5.952;2023-07-30T00:23:50;8.30;;;2.00;;
72590;SDS011;60625;51.212;5.952;2023-07-30T00:28:51;5.60;;;1.60;;
72590;SDS011;60625;51.212;5.952;2023-07-30T00:33:51;6.20;;;1.90;;
72590;SDS011;60625;51.212;5.952;2023-07-30T00:38:53;6.00;;;2.00;;
72590;SDS011;60625;51.212;5.952;2023-07-30T00:43:53;6.30;;;2.20;;
72590;SDS011;60625;51.212;5.952;2023-07-30T00:48:53;6.30;;;1.70;;
72590;SDS011;60625;51.212;5.952;2023-07-30T00:53:54;6.90;;;1.70;;
72590;SDS011;60625;51.212;5.952;2023-07-30T00:58:56;6.10;;;1.70;;
72590;SDS011;60625;51.212;5.952;2023-07-30T01:03:56;8.10;;;2.40;;
72590;SDS011;60625;51.212;5.952;2023-07-30T01:08:57;8.00;;;2.00;;
72590;SDS011;60625;51.212;5.952;2023-07-30T01:13:58;7.50;;;1.90;;
72590;SDS011;60625;51.212;5.952;2023-07-30T01:18:59;6.60;;;1.80;;
72590;SDS011;60625;51.212;5.952;2023-07-30T01:24:04;9.30;;;2.10;;
72590;SDS011;60625;51.212;5.952;2023-07-30T01:29:11;9.90;;;2.00;;
72590;SDS011;60625;51.212;5.952;2023-07-30T01:34:15;8.80;;;2.00;;
72590;SDS011;60625;51.212;5.952;2023-07-30T01:39:17;6.10;;;1.80;;
72590;SDS011;60625;51.212;5.952;2023-07-30T01:44:18;9.10;;;2.60;;
72590;SDS011;60625;51.212;5.952;2023-07-30T01:49:18;8.30;;;1.90;;
72590;SDS011;60625;51.212;5.952;2023-07-30T01:54:19;6.20;;;1.80;;
72590;SDS011;60625;51.212;5.952;2023-07-30T01:59:19;12.40;;;2.50;;
72590;SDS011;60625;51.212;5.952;2023-07-30T02:04:20;4.60;;;1.70;;
72590;SDS011;60625;51.212;5.952;2023-07-30T02:09:24;9.80;;;2.50;;
72590;SDS011;60625;51.212;5.952;2023-07-30T02:14:25;7.90;;;2.00;;
72590;SDS011;60625;51.212;5.952;2023-07-30T02:19:26;11.30;;;2.40;;
72590;SDS011;60625;51.212;5.952;2023-07-30T02:24:26;8.20;;;1.70;;
72590;SDS011;60625;51.212;5.952;2023-07-30T02:29:27;10.30;;;2.00;;
72590;SDS011;60625;51.212;5.952;2023-07-30T02:34:28;15.90;;;2.00;;
72590;SDS011;60625;51.212;5.952;2023-07-30T02:39:28;10.30;;;1.60;;
72590;SDS011;60625;51.212;5.952;2023-07-30T02:44:29;8.90;;;2.30;;
72590;SDS011;60625;51.212;5.952;2023-07-30T02:49:29;9.60;;;2.20;;
72590;SDS011;60625;51.212;5.952;2023-07-30T02:54:30;7.10;;;2.00;;
72590;SDS011;60625;51.212;5.952;2023-07-30T02:59:34;6.70;;;2.10;;
72590;SDS011;60625;51.212;5.952;2023-07-30T03:04:38;9.50;;;2.50;;
72590;SDS011;60625;51.212;5.952;2023-07-30T03:09:39;8.90;;;2.30;;
72590;SDS011;60625;51.212;5.952;2023-07-30T03:14:39;11.50;;;1.60;;
72590;SDS011;60625;51.212;5.952;2023-07-30T03:19:40;10.70;;;1.80;;
72590;SDS011;60625;51.212;5.952;2023-07-30T03:24:41;11.80;;;2.30;;
72590;SDS011;60625;51.212;5.952;2023-07-30T03:29:42;10.70;;;2.20;;
72590;SDS011;60625;51.212;5.952;2023-07-30T03:34:43;7.50;;;2.00;;
72590;SDS011;60625;51.212;5.952;2023-07-30T03:39:43;7.30;;;1.80;;
72590;SDS011;60625;51.212;5.952;2023-07-30T03:44:47;9.20;;;1.90;;
72590;SDS011;60625;51.212;5.952;2023-07-30T03:49:47;8.00;;;2.20;;
72590;SDS011;60625;51.212;5.952;2023-07-30T03:54:48;13.60;;;2.50;;
72590;SDS011;60625;51.212;5.952;2023-07-30T03:59:49;12.10;;;2.10;;
72590;SDS011;60625;51.212;5.952;2023-07-30T04:04:50;10.00;;;2.10;;
72590;SDS011;60625;51.212;5.952;2023-07-30T04:09:50;9.10;;;2.10;;
72590;SDS011;60625;51.212;5.952;2023-07-30T04:14:51;9.50;;;1.90;;
72590;SDS011;60625;51.212;5.952;2023-07-30T04:19:51;8.20;;;1.70;;
72590;SDS011;60625;51.212;5.952;2023-07-30T04:24:52;9.20;;;1.70;;
72590;SDS011;60625;51.212;5.952;2023-07-30T04:29:52;10.30;;;2.30;;
72590;SDS011;60625;51.212;5.952;2023-07-30T04:34:53;11.00;;;1.80;;
72590;SDS011;60625;51.212;5.952;2023-07-30T04:39:54;8.90;;;2.70;;
72590;SDS011;60625;51.212;5.952;2023-07-30T04:44:55;8.40;;;2.30;;
72590;SDS011;60625;51.212;5.952;2023-07-30T04:49:56;10.60;;;2.00;;
72590;SDS011;60625;51.212;5.952;2023-07-30T04:54:56;10.70;;;1.80;;
72590;SDS011;60625;51.212;5.952;2023-07-30T04:59:57;8.40;;;1.50;;
72590;SDS011;60625;51.212;5.952;2023-07-30T05:04:58;7.90;;;1.40;;
72590;SDS011;60625;51.212;5.952;2023-07-30T05:09:58;5.90;;;1.30;;
72590;SDS011;60625;51.212;5.952;2023-07-30T05:14:59;6.40;;;1.20;;
72590;SDS011;60625;51.212;5.952;2023-07-30T05:20:00;5.60;;;1.00;;
72590;SDS011;60625;51.212;5.952;2023-07-30T05:25:00;6.80;;;1.10;;
72590;SDS011;60625;51.212;5.952;2023-07-30T05:30:02;6.90;;;1.10;;
72590;SDS011;60625;51.212;5.952;2023-07-30T05:35:02;7.30;;;1.30;;
72590;SDS011;60625;51.212;5.952;2023-07-30T05:40:04;7.10;;;1.10;;
72590;SDS011;60625;51.212;5.952;2023-07-30T05:45:06;9.10;;;1.20;;
72590;SDS011;60625;51.212;5.952;2023-07-30T05:50:08;7.80;;;1.30;;
72590;SDS011;60625;51.212;5.952;2023-07-30T05:55:09;6.40;;;1.00;;
72590;SDS011;60625;51.212;5.952;2023-07-30T06:00:10;9.20;;;1.20;;
72590;SDS011;60625;51.212;5.952;2023-07-30T06:05:14;8.90;;;1.50;;
72590;SDS011;60625;51.212;5.952;2023-07-30T06:10:15;10.60;;;1.40;;
72590;SDS011;60625;51.212;5.952;2023-07-30T06:15:15;7.30;;;1.50;;
72590;SDS011;60625;51.212;5.952;2023-07-30T06:20:16;9.60;;;1.50;;
72590;SDS011;60625;51.212;5.952;2023-07-30T06:25:16;11.70;;;1.50;;
72590;SDS011;60625;51.212;5.952;2023-07-30T06:30:17;11.50;;;1.50;;
72590;SDS011;60625;51.212;5.952;2023-07-30T06:35:17;11.60;;;2.00;;
72590;SDS011;60625;51.212;5.952;2023-07-30T06:40:18;8.70;;;1.30;;
72590;SDS011;60625;51.212;5.952;2023-07-30T06:45:19;10.10;;;1.60;;
72590;SDS011;60625;51.212;5.952;2023-07-30T06:50:20;11.40;;;1.60;;
72590;SDS011;60625;51.212;5.952;2023-07-30T06:55:21;10.90;;;2.00;;
72590;SDS011;60625;51.212;5.952;2023-07-30T07:00:22;12.30;;;2.10;;
72590;SDS011;60625;51.212;5.952;2023-07-30T07:05:25;10.50;;;1.60;;
72590;SDS011;60625;51.212;5.952;2023-07-30T07:10:26;11.30;;;1.80;;
72590;SDS011;60625;51.212;5.952;2023-07-30T07:15:26;17.30;;;2.80;;
72590;SDS011;60625;51.212;5.952;2023-07-30T07:20:27;11.50;;;1.70;;
72590;SDS011;60625;51.212;5.952;2023-07-30T07:25:27;11.80;;;1.60;;
72590;SDS011;60625;51.212;5.952;2023-07-30T07:30:28;11.20;;;2.40;;
72590;SDS011;60625;51.212;5.952;2023-07-30T07:35:29;15.30;;;2.20;;
72590;SDS011;60625;51.212;5.952;2023-07-30T07:40:30;11.70;;;1.80;;
72590;SDS011;60625;51.212;5.952;2023-07-30T07:45:30;15.50;;;2.10;;
72590;SDS011;60625;51.212;5.952;2023-07-30T07:50:31;10.50;;;2.30;;
72590;SDS011;60625;51.212;5.952;2023-07-30T07:55:31;10.80;;;2.10;;
72590;SDS011;60625;51.212;5.952;2023-07-30T08:00:32;14.00;;;1.90;;
72590;SDS011;60625;51.212;5.952;2023-07-30T08:05:35;15.20;;;2.20;;
72590;SDS011;60625;51.212;5.952;2023-07-30T08:10:40;10.50;;;1.70;;
72590;SDS011;60625;51.212;5.952;2023-07-30T08:15:43;16.30;;;2.40;;
72590;SDS011;60625;51.212;5.952;2023-07-30T08:20:44;13.80;;;2.50;;
72590;SDS011;60625;51.212;5.952;2023-07-30T08:25:44;14.20;;;2.30;;
72590;SDS011;60625;51.212;5.952;2023-07-30T08:30:45;11.10;;;1.80;;
72590;SDS011;60625;51.212;5.952;2023-07-30T08:35:45;8.50;;;2.20;;
72590;SDS011;60625;51.212;5.952;2023-07-30T08:40:46;9.70;;;2.20;;
72590;SDS011;60625;51.212;5.952;2023-07-30T08:45:46;11.50;;;1.90;;
72590;SDS011;60625;51.212;5.952;2023-07-30T08:50:48;10.00;;;1.60;;
72590;SDS011;60625;51.212;5.952;2023-07-30T08:55:50;11.40;;;1.90;;
72590;SDS011;60625;51.212;5.952;2023-07-30T09:00:53;14.40;;;2.00;;
72590;SDS011;60625;51.212;5.952;2023-07-30T09:05:55;9.80;;;2.10;;
72590;SDS011;60625;51.212;5.952;2023-07-30T09:10:56;9.70;;;1.50;;
72590;SDS011;60625;51.212;5.952;2023-07-30T09:15:56;11.30;;;1.90;;
72590;SDS011;60625;51.212;5.952;2023-07-30T09:20:59;10.80;;;1.30;;
72590;SDS011;60625;51.212;5.952;2023-07-30T09:25:59;10.30;;;2.40;;
72590;SDS011;60625;51.212;5.952;2023-07-30T09:31:06;12.90;;;1.60;;
72590;SDS011;60625;51.212;5.952;2023-07-30T09:36:08;11.60;;;1.80;;
72590;SDS011;60625;51.212;5.952;2023-07-30T09:41:11;10.40;;;1.30;;
72590;SDS011;60625;51.212;5.952;2023-07-30T09:46:12;8.00;;;1.50;;
72590;SDS011;60625;51.212;5.952;2023-07-30T09:51:14;6.80;;;1.20;;
72590;SDS011;60625;51.212;5.952;2023-07-30T09:56:15;11.10;;;2.80;;
72590;SDS011;60625;51.212;5.952;2023-07-30T10:01:17;11.50;;;1.90;;
72590;SDS011;60625;51.212;5.952;2023-07-30T10:06:18;12.10;;;1.70;;
72590;SDS011;60625;51.212;5.952;2023-07-30T10:11:19;6.80;;;1.40;;
72590;SDS011;60625;51.212;5.952;2023-07-30T10:16:25;8.90;;;1.10;;
72590;SDS011;60625;51.212;5.952;2023-07-30T10:21:27;8.20;;;1.30;;
72590;SDS011;60625;51.212;5.952;2023-07-30T10:26:32;10.40;;;1.90;;
72590;SDS011;60625;51.212;5.952;2023-07-30T10:31:41;8.70;;;1.80;;
72590;SDS011;60625;51.212;5.952;2023-07-30T10:36:46;6.40;;;1.30;;
72590;SDS011;60625;51.212;5.952;2023-07-30T10:41:53;10.50;;;1.50;;
72590;SDS011;60625;51.212;5.952;2023-07-30T10:46:56;7.00;;;1.20;;
72590;SDS011;60625;51.212;5.952;2023-07-30T10:51:59;8.70;;;1.30;;
72590;SDS011;60625;51.212;5.952;2023-07-30T10:57:00;7.70;;;1.40;;
72590;SDS011;60625;51.212;5.952;2023-07-30T11:02:01;7.00;;;1.50;;
72590;SDS011;60625;51.212;5.952;2023-07-30T11:07:02;5.30;;;0.80;;
72590;SDS011;60625;51.212;5.952;2023-07-30T11:12:04;7.60;;;1.00;;
72590;SDS011;60625;51.212;5.952;2023-07-30T11:17:09;4.80;;;0.80;;
72590;SDS011;60625;51.212;5.952;2023-07-30T11:22:09;4.80;;;0.90;;
72590;SDS011;60625;51.212;5.952;2023-07-30T11:27:09;3.80;;;0.60;;
72590;SDS011;60625;51.212;5.952;2023-07-30T11:32:10;4.70;;;0.60;;
72590;SDS011;60625;51.212;5.952;2023-07-30T11:37:11;6.20;;;1.00;;
72590;SDS011;60625;51.212;5.952;2023-07-30T11:42:11;7.00;;;1.20;;
72590;SDS011;60625;51.212;5.952;2023-07-30T11:47:21;6.20;;;0.90;;
72590;SDS011;60625;51.212;5.952;2023-07-30T11:52:22;8.70;;;0.90;;
72590;SDS011;60625;51.212;5.952;2023-07-30T11:57:22;5.80;;;0.80;;
72590;SDS011;60625;51.212;5.952;2023-07-30T12:02:24;6.40;;;1.40;;
72590;SDS011;60625;51.212;5.952;2023-07-30T12:07:24;6.90;;;1.60;;
72590;SDS011;60625;51.212;5.952;2023-07-30T12:12:25;6.70;;;0.80;;
72590;SDS011;60625;51.212;5.952;2023-07-30T12:17:27;4.70;;;0.70;;
72590;SDS011;60625;51.212;5.952;2023-07-30T12:22:27;7.80;;;1.20;;
72590;SDS011;60625;51.212;5.952;2023-07-30T12:27:28;5.70;;;1.10;;
72590;SDS011;60625;51.212;5.952;2023-07-30T12:32:29;7.80;;;0.90;;
72590;SDS011;60625;51.212;5.952;2023-07-30T12:37:32;7.60;;;1.10;;
72590;SDS011;60625;51.212;5.952;2023-07-30T12:42:35;8.70;;;1.80;;
72590;SDS011;60625;51.212;5.952;2023-07-30T12:47:36;6.50;;;0.90;;
72590;SDS011;60625;51.212;5.952;2023-07-30T12:52:37;5.90;;;1.40;;
72590;SDS011;60625;51.212;5.952;2023-07-30T12:57:38;6.50;;;1.10;;
72590;SDS011;60625;51.212;5.952;2023-07-30T13:02:38;6.50;;;1.30;;
72590;SDS011;60625;51.212;5.952;2023-07-30T13:07:39;7.10;;;0.80;;
72590;SDS011;60625;51.212;5.952;2023-07-30T13:12:40;8.30;;;1.10;;
72590;SDS011;60625;51.212;5.952;2023-07-30T13:17:41;7.20;;;1.10;;
72590;SDS011;60625;51.212;5.952;2023-07-30T13:22:41;5.90;;;1.00;;
72590;SDS011;60625;51.212;5.952;2023-07-30T13:27:41;6.10;;;1.00;;
72590;SDS011;60625;51.212;5.952;2023-07-30T13:32:42;10.10;;;1.30;;
72590;SDS011;60625;51.212;5.952;2023-07-30T13:37:43;6.50;;;1.20;;
72590;SDS011;60625;51.212;5.952;2023-07-30T13:42:43;6.90;;;1.00;;
72590;SDS011;60625;51.212;5.952;2023-07-30T13:47:44;5.70;;;1.00;;
72590;SDS011;60625;51.212;5.952;2023-07-30T13:52:44;7.50;;;1.10;;
72590;SDS011;60625;51.212;5.952;2023-07-30T13:57:46;9.40;;;1.30;;
72590;SDS011;60625;51.212;5.952;2023-07-30T14:02:47;5.60;;;1.10;;
72590;SDS011;60625;51.212;5.952;2023-07-30T14:07:48;5.70;;;1.00;;
72590;SDS011;60625;51.212;5.952;2023-07-30T14:12:51;4.40;;;0.90;;
72590;SDS011;60625;51.212;5.952;2023-07-30T14:17:52;4.70;;;0.80;;
72590;SDS011;60625;51.212;5.952;2023-07-30T14:22:52;8.50;;;1.00;;
72590;SDS011;60625;51.212;5.952;2023-07-30T14:27:54;7.50;;;1.00;;
72590;SDS011;60625;51.212;5.952;2023-07-30T14:32:55;6.70;;;1.00;;
72590;SDS011;60625;51.212;5.952;2023-07-30T14:37:58;5.90;;;1.20;;
72590;SDS011;60625;51.212;5.952;2023-07-30T14:43:01;6.30;;;0.90;;
72590;SDS011;60625;51.212;5.952;2023-07-30T14:48:02;8.00;;;1.20;;
72590;SDS011;60625;51.212;5.952;2023-07-30T14:53:03;5.50;;;0.90;;
72590;SDS011;60625;51.212;5.952;2023-07-30T14:58:03;6.60;;;1.00;;
72590;SDS011;60625;51.212;5.952;2023-07-30T15:03:05;5.10;;;0.70;;
72590;SDS011;60625;51.212;5.952;2023-07-30T15:08:05;6.80;;;1.20;;
72590;SDS011;60625;51.212;5.952;2023-07-30T15:13:06;12.10;;;0.80;;
72590;SDS011;60625;51.212;5.952;2023-07-30T15:18:06;6.30;;;1.20;;
72590;SDS011;60625;51.212;5.952;2023-07-30T15:23:08;5.60;;;1.40;;
72590;SDS011;60625;51.212;5.952;2023-07-30T15:28:12;5.80;;;1.30;;
72590;SDS011;60625;51.212;5.952;2023-07-30T15:33:14;6.10;;;1.10;;
72590;SDS011;60625;51.212;5.952;2023-07-30T15:38:14;7.20;;;1.30;;
72590;SDS011;60625;51.212;5.952;2023-07-30T15:43:15;5.50;;;1.10;;
72590;SDS011;60625;51.212;5.952;2023-07-30T15:48:16;8.80;;;1.20;;
72590;SDS011;60625;51.212;5.952;2023-07-30T15:53:16;5.80;;;0.90;;
72590;SDS011;60625;51.212;5.952;2023-07-30T15:58:17;5.60;;;1.00;;
72590;SDS011;60625;51.212;5.952;2023-07-30T16:03:21;6.10;;;0.90;;
72590;SDS011;60625;51.212;5.952;2023-07-30T16:08:25;5.20;;;1.20;;
72590;SDS011;60625;51.212;5.952;2023-07-30T16:13:29;5.80;;;1.50;;
72590;SDS011;60625;51.212;5.952;2023-07-30T16:18:30;4.30;;;1.10;;
72590;SDS011;60625;51.212;5.952;2023-07-30T16:23:31;6.20;;;1.20;;
72590;SDS011;60625;51.212;5.952;2023-07-30T16:28:31;3.50;;;0.90;;
72590;SDS011;60625;51.212;5.952;2023-07-30T16:33:32;5.10;;;1.00;;
72590;SDS011;60625;51.212;5.952;2023-07-30T16:38:33;6.80;;;1.50;;
72590;SDS011;60625;51.212;5.952;2023-07-30T16:43:35;5.90;;;1.40;;
72590;SDS011;60625;51.212;5.952;2023-07-30T16:48:36;6.90;;;1.60;;
72590;SDS011;60625;51.212;5.952;2023-07-30T16:53:37;10.10;;;1.60;;
72590;SDS011;60625;51.212;5.952;2023-07-30T16:58:38;5.40;;;1.60;;
72590;SDS011;60625;51.212;5.952;2023-07-30T17:03:39;8.40;;;1.10;;
72590;SDS011;60625;51.212;5.952;2023-07-30T17:08:41;7.20;;;1.40;;
72590;SDS011;60625;51.212;5.952;2023-07-30T17:13:41;6.70;;;1.40;;
72590;SDS011;60625;51.212;5.952;2023-07-30T17:18:44;6.40;;;1.40;;
72590;SDS011;60625;51.212;5.952;2023-07-30T17:23:44;5.50;;;1.40;;
72590;SDS011;60625;51.212;5.952;2023-07-30T17:28:45;6.20;;;1.60;;
72590;SDS011;60625;51.212;5.952;2023-07-30T17:33:45;7.00;;;1.50;;
72590;SDS011;60625;51.212;5.952;2023-07-30T17:38:46;6.20;;;1.40;;
72590;SDS011;60625;51.212;5.952;2023-07-30T17:43:46;6.50;;;1.70;;
72590;SDS011;60625;51.212;5.952;2023-07-30T17:48:47;6.50;;;1.90;;
72590;SDS011;60625;51.212;5.952;2023-07-30T17:53:48;7.10;;;2.10;;
72590;SDS011;60625;51.212;5.952;2023-07-30T17:58:49;7.80;;;1.60;;
72590;SDS011;60625;51.212;5.952;2023-07-30T18:03:49;7.30;;;1.90;;
72590;SDS011;60625;51.212;5.952;2023-07-30T18:08:50;9.70;;;1.90;;
72590;SDS011;60625;51.212;5.952;2023-07-30T18:13:50;6.50;;;2.00;;
72590;SDS011;60625;51.212;5.952;2023-07-30T18:18:50;7.80;;;2.10;;
72590;SDS011;60625;51.212;5.952;2023-07-30T18:23:52;6.10;;;1.30;;
72590;SDS011;60625;51.212;5.952;2023-07-30T18:28:52;8.70;;;1.80;;
72590;SDS011;60625;51.212;5.952;2023-07-30T18:33:53;7.40;;;1.80;;
72590;SDS011;60625;51.212;5.952;2023-07-30T18:38:53;6.90;;;1.80;;
72590;SDS011;60625;51.212;5.952;2023-07-30T18:43:53;8.40;;;1.80;;
72590;SDS011;60625;51.212;5.952;2023-07-30T18:48:54;9.80;;;1.60;;
72590;SDS011;60625;51.212;5.952;2023-07-30T18:53:55;5.30;;;1.40;;
72590;SDS011;60625;51.212;5.952;2023-07-30T18:58:55;5.60;;;1.60;;
72590;SDS011;60625;51.212;5.952;2023-07-30T19:03:57;5.70;;;1.50;;
72590;SDS011;60625;51.212;5.952;2023-07-30T19:08:58;7.40;;;1.60;;
72590;SDS011;60625;51.212;5.952;2023-07-30T19:13:58;5.20;;;1.50;;
72590;SDS011;60625;51.212;5.952;2023-07-30T19:19:00;5.10;;;1.60;;
72590;SDS011;60625;51.212;5.952;2023-07-30T19:24:01;6.50;;;2.00;;
72590;SDS011;60625;51.212;5.952;2023-07-30T19:29:01;6.10;;;2.50;;
72590;SDS011;60625;51.212;5.952;2023-07-30T19:34:09;7.40;;;2.30;;
72590;SDS011;60625;51.212;5.952;2023-07-30T19:39:10;6.50;;;2.10;;
72590;SDS011;60625;51.212;5.952;2023-07-30T19:44:10;8.70;;;1.80;;
72590;SDS011;60625;51.212;5.952;2023-07-30T19:49:11;4.70;;;2.00;;
72590;SDS011;60625;51.212;5.952;2023-07-30T19:54:12;9.10;;;3.00;;
72590;SDS011;60625;51.212;5.952;2023-07-30T19:59:13;7.90;;;2.50;;
72590;SDS011;60625;51.212;5.952;2023-07-30T20:04:13;8.70;;;2.20;;
72590;SDS011;60625;51.212;5.952;2023-07-30T20:09:14;8.90;;;2.70;;
72590;SDS011;60625;51.212;5.952;2023-07-30T20:14:14;8.60;;;2.40;;
72590;SDS011;60625;51.212;5.952;2023-07-30T20:19:15;6.10;;;2.50;;
72590;SDS011;60625;51.212;5.952;2023-07-30T20:24:17;8.30;;;3.10;;
72590;SDS011;60625;51.212;5.952;2023-07-30T20:29:18;6.80;;;2.30;;
72590;SDS011;60625;51.212;5.952;2023-07-30T20:34:20;6.30;;;1.90;;
72590;SDS011;60625;51.212;5.952;2023-07-30T20:39:21;5.70;;;2.10;;
72590;SDS011;60625;51.212;5.952;2023-07-30T20:44:21;6.40;;;2.60;;
72590;SDS011;60625;51.212;5.952;2023-07-30T20:49:22;7.40;;;2.10;;
72590;SDS011;60625;51.212;5.952;2023-07-30T20:54:22;7.70;;;2.10;;
72590;SDS011;60625;51.212;5.952;2023-07-30T20:59:23;9.20;;;2.40;;
72590;SDS011;60625;51.212;5.952;2023-07-30T21:04:23;10.50;;;2.50;;
72590;SDS011;60625;51.212;5.952;2023-07-30T21:09:24;8.90;;;2.40;;
72590;SDS011;60625;51.212;5.952;2023-07-30T21:14:24;9.20;;;3.30;;
72590;SDS011;60625;51.212;5.952;2023-07-30T21:19:25;8.20;;;2.60;;
72590;SDS011;60625;51.212;5.952;2023-07-30T21:24:25;9.70;;;2.60;;
72590;SDS011;60625;51.212;5.952;2023-07-30T21:29:26;8.10;;;2.90;;
72590;SDS011;60625;51.212;5.952;2023-07-30T21:34:26;9.90;;;2.80;;
72590;SDS011;60625;51.212;5.952;2023-07-30T21:39:27;8.50;;;2.70;;
72590;SDS011;60625;51.212;5.952;2023-07-30T21:44:27;7.90;;;2.80;;
72590;SDS011;60625;51.212;5.952;2023-07-30T21:49:28;10.00;;;2.80;;
72590;SDS011;60625;51.212;5.952;2023-07-30T21:54:29;7.70;;;2.40;;
72590;SDS011;60625;51.212;5.952;2023-07-30T21:59:30;8.00;;;2.70;;
72590;SDS011;60625;51.212;5.952;2023-07-30T22:04:32;10.60;;;2.30;;
72590;SDS011;60625;51.212;5.952;2023-07-30T22:09:36;7.50;;;2.50;;
72590;SDS011;60625;51.212;5.952;2023-07-30T22:14:38;8.80;;;2.70;;
72590;SDS011;60625;51.212;5.952;2023-07-30T22:19:39;5.90;;;2.00;;
72590;SDS011;60625;51.212;5.952;2023-07-30T22:24:39;10.00;;;3.10;;
72590;SDS011;60625;51.212;5.952;2023-07-30T22:29:40;8.80;;;3.10;;
72590;SDS011;60625;51.212;5.952;2023-07-30T22:34:40;7.50;;;2.40;;
72590;SDS011;60625;51.212;5.952;2023-07-30T22:39:41;7.30;;;2.70;;
72590;SDS011;60625;51.212;5.952;2023-07-30T22:44:41;13.10;;;2.90;;
72590;SDS011;60625;51.212;5.952;2023-07-30T22:49:41;7.90;;;2.90;;
72590;SDS011;60625;51.212;5.952;2023-07-30T22:54:42;10.40;;;3.20;;
72590;SDS011;60625;51.212;5.952;2023-07-30T22:59:42;8.00;;;2.70;;
72590;SDS011;60625;51.212;5.952;2023-07-30T23:04:43;8.90;;;3.50;;
72590;SDS011;60625;51.212;5.952;2023-07-30T23:09:44;12.70;;;3.30;;
72590;SDS011;60625;51.212;5.952;2023-07-30T23:14:44;9.90;;;3.10;;
72590;SDS011;60625;51.212;5.952;2023-07-30T23:19:44;9.70;;;2.80;;
72590;SDS011;60625;51.212;5.952;2023-07-30T23:24:45;9.40;;;3.70;;
72590;SDS011;60625;51.212;5.952;2023-07-30T23:29:46;13.80;;;3.20;;
72590;SDS011;60625;51.212;5.952;2023-07-30T23:34:47;16.00;;;3.40;;
72590;SDS011;60625;51.212;5.952;2023-07-30T23:39:50;9.80;;;2.90;;
72590;SDS011;60625;51.212;5.952;2023-07-30T23:44:52;9.40;;;2.60;;
72590;SDS011;60625;51.212;5.952;2023-07-30T23:49:54;12.70;;;3.50;;
72590;SDS011;60625;51.212;5.952;2023-07-30T23:54:54;9.50;;;3.60;;
72590;SDS011;60625;51.212;5.952;2023-07-30T23:59:54;15.00;;;3.20;;
